Time;durP1;ratioP1;P1;durP2;ratioP2;P2;SDS_P1;SDS_P2;PMS_P1;PMS_P2;Temp;Humidity;BMP_temperature;BMP_pressure;BME280_temperature;BME280_humidity;BME280_pressure;Samples;Min_cycle;Max_cycle;Signal;HPM_P1;HPM_P2
2023/11/09 00:01:37;;;;;;;1.87;1.50;;;8.80;99.90;;;;;;4874015;29;20203;-75
2023/11/09 00:04:03;;;;;;;1.20;0.70;;;8.90;99.90;;;;;;4895950;29;20427;-76
2023/11/09 00:06:29;;;;;;;2.23;0.80;;;8.90;99.90;;;;;;4917319;29;20454;-77
2023/11/09 00:08:55;;;;;;;1.30;0.80;;;8.80;99.90;;;;;;4894752;29;20459;-77
2023/11/09 00:11:21;;;;;;;1.37;0.97;;;8.90;99.90;;;;;;4908390;29;20420;-76
2023/11/09 00:13:47;;;;;;;0.93;0.73;;;8.90;99.90;;;;;;4910500;29;20285;-75
2023/11/09 00:16:13;;;;;;;1.00;0.70;;;8.90;99.90;;;;;;4905083;29;20235;-75
2023/11/09 00:18:39;;;;;;;1.23;0.70;;;8.90;99.90;;;;;;4899878;29;20431;-75
2023/11/09 00:21:05;;;;;;;2.60;1.10;;;8.90;99.90;;;;;;4904932;29;20513;-74
2023/11/09 00:23:31;;;;;;;1.40;0.80;;;8.90;99.90;;;;;;4900872;29;20683;-75
2023/11/09 00:25:58;;;;;;;1.20;0.80;;;8.80;99.90;;;;;;4909789;29;20206;-75
2023/11/09 00:28:24;;;;;;;1.23;1.00;;;8.90;99.90;;;;;;4904988;29;20474;-75
2023/11/09 00:30:50;;;;;;;1.63;0.67;;;8.80;99.90;;;;;;4912252;29;20437;-74
2023/11/09 00:33:15;;;;;;;1.07;0.83;;;8.90;99.90;;;;;;4902224;29;20455;-76
2023/11/09 00:35:41;;;;;;;1.20;0.90;;;8.90;99.90;;;;;;4912401;29;20285;-75
2023/11/09 00:38:08;;;;;;;1.07;0.70;;;8.90;99.90;;;;;;4900604;29;20587;-75
2023/11/09 00:40:34;;;;;;;1.23;0.80;;;8.90;99.90;;;;;;4883460;29;20190;-75
2023/11/09 00:42:59;;;;;;;0.90;0.63;;;8.80;99.90;;;;;;4901632;29;20920;-76
2023/11/09 00:45:25;;;;;;;1.10;0.80;;;8.80;99.90;;;;;;4903484;29;20225;-75
2023/11/09 00:47:52;;;;;;;0.90;0.73;;;8.80;99.90;;;;;;4919312;29;20253;-75
2023/11/09 00:50:17;;;;;;;1.17;0.83;;;8.80;99.90;;;;;;4918827;29;20220;-75
2023/11/09 00:52:44;;;;;;;1.00;0.80;;;8.80;99.90;;;;;;4909006;29;20451;-75
2023/11/09 00:55:10;;;;;;;1.73;1.00;;;8.80;99.90;;;;;;4910532;29;20210;-74
2023/11/09 00:57:36;;;;;;;1.20;0.80;;;8.80;99.90;;;;;;4910673;29;20764;-75
2023/11/09 01:00:03;;;;;;;1.23;0.90;;;8.90;99.90;;;;;;4909703;29;20191;-76
2023/11/09 01:02:34;;;;;;;0.90;0.60;;;8.80;99.90;;;;;;4903577;29;20183;-74
2023/11/09 01:04:59;;;;;;;1.00;0.60;;;8.90;99.90;;;;;;4904870;29;20948;-75
2023/11/09 01:07:25;;;;;;;0.90;0.57;;;8.90;99.90;;;;;;4887286;29;20419;-75
2023/11/09 01:09:51;;;;;;;0.93;0.80;;;8.90;99.90;;;;;;4903545;29;20269;-76
2023/11/09 01:12:17;;;;;;;1.23;0.70;;;8.90;99.90;;;;;;4909916;29;20289;-74
2023/11/09 01:14:43;;;;;;;0.90;0.60;;;8.90;99.90;;;;;;4915757;29;20949;-75
2023/11/09 01:17:11;;;;;;;1.10;0.90;;;8.90;99.90;;;;;;4887208;29;20503;-75
2023/11/09 01:19:37;;;;;;;1.43;0.80;;;8.90;99.90;;;;;;4886829;29;20431;-74
2023/11/09 01:22:02;;;;;;;1.20;0.80;;;8.90;99.90;;;;;;4901839;29;20921;-74
2023/11/09 01:24:28;;;;;;;0.90;0.60;;;8.90;99.90;;;;;;4903489;29;20210;-75
2023/11/09 01:26:55;;;;;;;0.90;0.70;;;8.90;99.90;;;;;;4918129;29;20509;-74
2023/11/09 01:29:21;;;;;;;0.80;0.60;;;8.90;99.90;;;;;;4908168;29;20242;-75
2023/11/09 01:31:48;;;;;;;0.97;0.60;;;8.90;99.90;;;;;;4903388;29;20452;-75
2023/11/09 01:34:14;;;;;;;0.77;0.50;;;8.90;99.90;;;;;;4907376;29;20427;-75
2023/11/09 01:36:39;;;;;;;0.97;0.60;;;8.90;99.90;;;;;;4892638;29;20427;-75
2023/11/09 01:39:05;;;;;;;1.70;0.63;;;8.90;99.90;;;;;;4906450;29;20272;-74
2023/11/09 01:41:31;;;;;;;0.87;0.53;;;8.90;99.90;;;;;;4904707;29;20198;-75
2023/11/09 01:43:57;;;;;;;0.77;0.50;;;8.90;99.90;;;;;;4910276;29;20666;-75
2023/11/09 01:46:25;;;;;;;1.63;0.60;;;8.90;99.90;;;;;;4886187;29;20215;-74
2023/11/09 01:48:52;;;;;;;0.80;0.60;;;8.90;99.90;;;;;;4902867;29;20466;-74
2023/11/09 01:51:20;;;;;;;1.10;0.60;;;8.90;99.90;;;;;;4902696;29;20423;-74
2023/11/09 01:53:47;;;;;;;0.70;0.50;;;8.90;99.90;;;;;;4903197;29;20415;-75
2023/11/09 01:56:14;;;;;;;0.83;0.57;;;8.90;99.90;;;;;;4886121;29;20454;-75
2023/11/09 01:58:45;;;;;;;0.80;0.60;;;8.90;99.90;;;;;;4908249;29;20427;-74
2023/11/09 02:01:13;;;;;;;0.80;0.50;;;8.90;99.90;;;;;;4885972;29;20423;-75
2023/11/09 02:03:40;;;;;;;0.80;0.60;;;8.90;99.90;;;;;;4886372;29;20431;-75
2023/11/09 02:06:09;;;;;;;0.70;0.50;;;8.90;99.90;;;;;;4887635;29;20447;-76
2023/11/09 02:08:38;;;;;;;0.80;0.60;;;8.90;99.90;;;;;;4902657;29;20470;-75
2023/11/09 02:11:05;;;;;;;0.80;0.57;;;8.90;99.90;;;;;;4902835;29;20424;-74
2023/11/09 02:13:32;;;;;;;1.03;0.60;;;8.90;99.90;;;;;;4917793;29;20438;-75
2023/11/09 02:15:59;;;;;;;1.47;0.63;;;8.90;99.90;;;;;;4894113;29;20485;-76
2023/11/09 02:18:26;;;;;;;1.10;0.60;;;8.90;99.90;;;;;;4901647;29;20436;-75
2023/11/09 02:20:52;;;;;;;0.80;0.53;;;8.90;99.90;;;;;;4902475;29;20426;-75
2023/11/09 02:23:23;;;;;;;1.00;0.70;;;8.90;99.90;;;;;;4895495;29;20775;-74
2023/11/09 02:25:49;;;;;;;1.33;0.70;;;8.90;99.90;;;;;;4911602;29;20478;-74
2023/11/09 02:28:15;;;;;;;1.30;0.63;;;8.90;99.90;;;;;;4907059;29;20475;-74
2023/11/09 02:30:41;;;;;;;1.50;0.60;;;8.90;99.90;;;;;;4885836;29;20416;-74
2023/11/09 02:33:09;;;;;;;1.30;0.70;;;8.90;99.90;;;;;;4885615;29;20819;-74
2023/11/09 02:35:36;;;;;;;0.90;0.60;;;8.90;99.90;;;;;;4894170;29;20972;-74
2023/11/09 02:38:03;;;;;;;0.77;0.57;;;8.90;99.90;;;;;;4921367;29;20837;-75
2023/11/09 02:40:30;;;;;;;1.20;0.80;;;8.90;99.90;;;;;;4921501;29;20442;-75
2023/11/09 02:42:56;;;;;;;1.47;0.80;;;8.90;99.90;;;;;;4912721;29;20458;-74
2023/11/09 02:45:22;;;;;;;0.90;0.67;;;8.90;99.90;;;;;;4905430;29;20223;-74
2023/11/09 02:47:47;;;;;;;1.00;0.63;;;8.80;99.90;;;;;;4920448;29;20479;-75
2023/11/09 02:50:14;;;;;;;1.47;0.60;;;8.90;99.90;;;;;;4905022;29;20488;-75
2023/11/09 02:52:40;;;;;;;0.83;0.60;;;8.80;99.90;;;;;;4904362;29;20197;-75
2023/11/09 02:55:06;;;;;;;0.87;0.60;;;8.90;99.90;;;;;;4919701;29;20450;-76
2023/11/09 02:57:31;;;;;;;0.73;0.53;;;8.90;99.90;;;;;;4915218;29;20229;-75
2023/11/09 02:59:57;;;;;;;1.00;0.80;;;8.90;99.90;;;;;;4902067;29;20331;-74
2023/11/09 03:02:23;;;;;;;1.30;0.83;;;8.90;99.90;;;;;;4906907;29;20277;-75
2023/11/09 03:04:48;;;;;;;1.60;1.20;;;8.80;99.90;;;;;;4899853;29;20535;-76
2023/11/09 03:07:14;;;;;;;1.40;1.03;;;8.80;99.90;;;;;;4901816;29;20199;-75
2023/11/09 03:09:44;;;;;;;1.03;0.70;;;8.90;99.90;;;;;;4901706;29;20318;-75
2023/11/09 03:12:10;;;;;;;1.60;1.10;;;8.90;99.90;;;;;;4909791;29;20554;-75
2023/11/09 03:14:36;;;;;;;1.20;1.00;;;8.80;99.90;;;;;;4905364;29;20483;-75
2023/11/09 03:17:10;;;;;;;1.33;1.00;;;8.80;99.90;;;;;;4901235;29;20211;-75
2023/11/09 03:19:37;;;;;;;1.50;0.90;;;8.80;99.90;;;;;;4901206;29;20753;-74
2023/11/09 03:22:03;;;;;;;1.60;1.13;;;8.80;99.90;;;;;;4901036;29;20697;-75
2023/11/09 03:24:30;;;;;;;1.07;0.83;;;8.80;99.90;;;;;;4901447;29;20466;-76
2023/11/09 03:26:56;;;;;;;1.70;1.07;;;8.80;99.90;;;;;;4888509;29;20501;-74
2023/11/09 03:29:22;;;;;;;1.50;1.10;;;8.80;99.90;;;;;;4915172;29;20477;-74
2023/11/09 03:31:48;;;;;;;1.20;0.90;;;8.80;99.90;;;;;;4920611;29;20423;-74
2023/11/09 03:34:14;;;;;;;1.80;1.10;;;8.80;99.90;;;;;;4919437;29;20445;-74
2023/11/09 03:36:39;;;;;;;1.70;1.40;;;8.80;99.90;;;;;;4919481;29;20189;-74
2023/11/09 03:39:05;;;;;;;2.53;1.10;;;8.80;99.90;;;;;;4908708;29;20195;-74
2023/11/09 03:41:31;;;;;;;1.67;1.20;;;8.80;99.90;;;;;;4902252;29;20203;-74
2023/11/09 03:43:57;;;;;;;2.30;1.30;;;8.80;99.90;;;;;;4894846;29;20195;-75
2023/11/09 03:46:22;;;;;;;1.60;1.47;;;8.70;99.90;;;;;;4906789;29;20218;-74
2023/11/09 03:48:49;;;;;;;2.07;1.33;;;8.80;99.90;;;;;;4915893;29;21014;-74
2023/11/09 03:51:15;;;;;;;2.03;1.53;;;8.70;99.90;;;;;;4917729;29;20225;-74
2023/11/09 03:53:40;;;;;;;2.70;1.30;;;8.80;99.90;;;;;;4907169;29;20427;-75
2023/11/09 03:56:06;;;;;;;1.57;1.17;;;8.70;99.90;;;;;;4915796;29;20232;-75
2023/11/09 03:58:33;;;;;;;1.83;1.30;;;8.80;99.90;;;;;;4926765;29;20596;-75
2023/11/09 04:00:59;;;;;;;2.13;1.20;;;8.70;99.90;;;;;;4909255;29;20258;-75
2023/11/09 04:03:25;;;;;;;2.23;1.60;;;8.70;99.90;;;;;;4906928;29;20430;-75
2023/11/09 04:05:51;;;;;;;1.97;1.20;;;8.70;99.90;;;;;;4919281;29;20925;-74
2023/11/09 04:08:18;;;;;;;3.00;1.40;;;8.80;99.90;;;;;;4919559;29;20253;-74
2023/11/09 04:10:43;;;;;;;2.33;1.20;;;8.80;99.90;;;;;;4903378;29;20187;-75
2023/11/09 04:13:09;;;;;;;1.57;1.00;;;8.70;99.90;;;;;;4907614;29;20893;-75
2023/11/09 04:15:36;;;;;;;1.50;1.20;;;8.80;99.90;;;;;;4909997;29;20230;-74
2023/11/09 04:18:01;;;;;;;1.80;1.20;;;8.70;99.90;;;;;;4900801;29;20195;-75
2023/11/09 04:20:27;;;;;;;1.50;1.13;;;8.80;99.90;;;;;;4900048;29;20419;-74
2023/11/09 04:22:52;;;;;;;2.10;1.53;;;8.80;99.90;;;;;;4899978;29;20520;-74
2023/11/09 04:25:18;;;;;;;1.47;1.10;;;8.80;99.90;;;;;;4900593;29;20488;-75
2023/11/09 04:27:44;;;;;;;1.50;1.10;;;8.80;99.90;;;;;;4910357;29;20224;-75
2023/11/09 04:30:10;;;;;;;2.27;1.60;;;8.80;99.90;;;;;;4905123;29;20215;-74
2023/11/09 04:32:36;;;;;;;1.87;1.33;;;8.80;99.90;;;;;;4901500;29;20473;-74
2023/11/09 04:35:02;;;;;;;2.10;1.30;;;8.70;99.90;;;;;;4898381;29;20488;-75
2023/11/09 04:37:30;;;;;;;1.50;1.20;;;8.70;99.90;;;;;;4899725;29;20742;-75
2023/11/09 04:39:58;;;;;;;2.73;1.37;;;8.80;99.90;;;;;;4900409;29;20478;-74
2023/11/09 04:42:29;;;;;;;2.13;1.40;;;8.70;99.90;;;;;;4905853;29;20438;-76
2023/11/09 04:44:56;;;;;;;2.67;1.93;;;8.70;99.90;;;;;;4907555;29;20953;-75
2023/11/09 04:47:25;;;;;;;2.47;1.40;;;8.70;99.90;;;;;;4886133;29;20882;-75
2023/11/09 04:49:58;;;;;;;2.67;1.80;;;8.70;99.90;;;;;;4919478;29;20803;-74
2023/11/09 04:52:29;;;;;;;2.27;1.73;;;8.70;99.90;;;;;;4925591;29;20441;-75
2023/11/09 04:55:10;;;;;;;2.20;1.50;;;8.70;99.90;;;;;;4900102;29;20913;-75
2023/11/09 05:08:37;;;;;;;1.63;1.40;;;8.70;99.90;;;;;;4891625;29;20447;-74
2023/11/09 05:11:03;;;;;;;1.40;1.30;;;8.70;99.90;;;;;;4895170;29;20434;-75
2023/11/09 05:13:29;;;;;;;2.90;1.80;;;8.80;99.90;;;;;;4912926;29;20445;-75
2023/11/09 05:15:54;;;;;;;2.13;1.67;;;8.80;99.90;;;;;;4913944;29;20309;-75
2023/11/09 05:18:21;;;;;;;2.37;1.60;;;8.80;99.90;;;;;;4918715;29;20224;-76
2023/11/09 05:20:48;;;;;;;2.57;1.67;;;8.80;99.90;;;;;;4907186;29;20191;-74
2023/11/09 05:23:14;;;;;;;2.70;2.20;;;8.80;99.90;;;;;;4916430;29;20842;-74
2023/11/09 05:25:41;;;;;;;2.33;1.90;;;8.80;99.90;;;;;;4920225;29;20549;-75
2023/11/09 05:28:07;;;;;;;2.03;1.53;;;8.80;99.90;;;;;;4917360;29;20278;-76
2023/11/09 05:30:33;;;;;;;2.90;1.50;;;8.80;99.90;;;;;;4910743;29;20699;-75
2023/11/09 05:32:58;;;;;;;3.87;2.00;;;8.80;99.90;;;;;;4918324;29;20411;-75
2023/11/09 05:35:24;;;;;;;2.03;1.83;;;8.80;99.90;;;;;;4926626;29;20269;-75
2023/11/09 05:37:51;;;;;;;1.90;1.50;;;8.80;99.90;;;;;;4918528;29;20163;-77
2023/11/09 05:40:20;;;;;;;3.03;1.80;;;8.80;99.90;;;;;;4917545;29;20183;-75
2023/11/09 05:42:46;;;;;;;2.47;1.50;;;8.80;99.90;;;;;;4899323;29;20716;-74
2023/11/09 05:45:12;;;;;;;2.00;1.40;;;8.70;99.90;;;;;;4913437;29;20473;-77
2023/11/09 05:47:38;;;;;;;2.43;1.60;;;8.70;99.90;;;;;;4927417;29;20423;-74
2023/11/09 05:50:05;;;;;;;1.80;1.37;;;8.70;99.90;;;;;;4916869;29;20226;-75
2023/11/09 05:52:31;;;;;;;1.73;1.30;;;8.70;99.90;;;;;;4909434;29;20191;-76
2023/11/09 05:54:57;;;;;;;1.30;1.20;;;8.70;99.90;;;;;;4930737;29;20442;-76
2023/11/09 05:57:23;;;;;;;1.77;1.30;;;8.70;99.90;;;;;;4923754;29;20483;-77
2023/11/09 05:59:48;;;;;;;2.20;1.63;;;8.70;99.90;;;;;;4907119;29;20437;-76
2023/11/09 06:02:14;;;;;;;3.50;1.93;;;8.70;99.90;;;;;;4903274;29;20209;-75
2023/11/09 06:04:42;;;;;;;2.13;1.93;;;8.80;99.90;;;;;;4922111;29;20454;-76
2023/11/09 06:07:11;;;;;;;1.73;1.17;;;8.80;99.90;;;;;;4891115;29;20438;-74
2023/11/09 06:09:40;;;;;;;2.30;1.20;;;8.80;99.90;;;;;;4929878;29;20796;-76
2023/11/09 06:12:08;;;;;;;1.70;1.40;;;8.80;99.90;;;;;;4898531;29;20432;-76
2023/11/09 06:14:34;;;;;;;2.07;1.30;;;8.80;99.90;;;;;;4918328;29;20443;-74
2023/11/09 06:16:59;;;;;;;1.77;1.27;;;8.80;99.90;;;;;;4916204;29;20531;-74
2023/11/09 06:19:25;;;;;;;2.53;1.70;;;8.80;99.90;;;;;;4918902;29;20198;-77
2023/11/09 06:21:52;;;;;;;3.10;1.27;;;8.70;99.90;;;;;;4926339;29;20187;-76
2023/11/09 06:24:18;;;;;;;1.70;1.23;;;8.80;99.90;;;;;;4913360;29;20202;-75
2023/11/09 06:26:44;;;;;;;1.97;1.67;;;8.70;99.90;;;;;;4926098;29;20434;-76
2023/11/09 06:29:10;;;;;;;2.03;1.30;;;8.70;99.90;;;;;;4912570;29;20210;-75
2023/11/09 06:31:37;;;;;;;3.10;1.70;;;8.80;99.90;;;;;;4922054;29;20422;-76
2023/11/09 06:34:03;;;;;;;1.90;1.33;;;8.80;99.90;;;;;;4930187;29;20439;-78
2023/11/09 06:36:29;;;;;;;1.90;1.20;;;8.80;99.90;;;;;;4898057;29;20529;-75
2023/11/09 06:38:55;;;;;;;1.20;0.90;;;8.80;99.90;;;;;;4904972;29;20751;-75
2023/11/09 06:41:21;;;;;;;1.40;1.20;;;8.80;99.90;;;;;;4920914;29;20427;-77
2023/11/09 06:43:48;;;;;;;1.37;1.10;;;8.80;99.90;;;;;;4912387;29;20190;-79
2023/11/09 06:46:14;;;;;;;1.50;1.10;;;8.80;99.90;;;;;;4924040;29;20454;-76
2023/11/09 06:48:39;;;;;;;2.47;1.20;;;8.80;99.90;;;;;;4921819;29;20805;-77
2023/11/09 06:51:05;;;;;;;1.20;0.90;;;8.80;99.90;;;;;;4908029;29;20187;-78
2023/11/09 06:53:30;;;;;;;1.17;0.93;;;8.70;99.90;;;;;;4898743;29;20259;-78
2023/11/09 06:55:56;;;;;;;0.87;0.70;;;8.80;99.90;;;;;;4909128;29;20215;-80
2023/11/09 06:58:22;;;;;;;0.90;0.70;;;8.80;99.90;;;;;;4905542;29;20187;-76
2023/11/09 07:00:47;;;;;;;1.50;0.90;;;8.80;99.90;;;;;;4904703;29;20183;-76
2023/11/09 07:03:13;;;;;;;1.00;0.80;;;8.80;99.90;;;;;;4904089;29;20209;-77
2023/11/09 07:05:39;;;;;;;1.20;0.90;;;8.80;99.90;;;;;;4906716;29;20219;-77
2023/11/09 07:08:08;;;;;;;1.03;0.80;;;8.80;99.90;;;;;;4910597;29;20419;-77
2023/11/09 07:10:34;;;;;;;1.67;1.00;;;8.80;99.90;;;;;;4911132;29;20187;-76
2023/11/09 07:13:00;;;;;;;1.00;0.70;;;8.80;99.90;;;;;;4894997;29;20426;-76
2023/11/09 07:15:27;;;;;;;0.90;0.63;;;8.80;99.90;;;;;;4913185;29;20478;-76
2023/11/09 07:17:53;;;;;;;1.67;0.80;;;8.80;99.90;;;;;;4916917;29;20916;-76
2023/11/09 07:20:19;;;;;;;0.80;0.57;;;8.80;99.90;;;;;;4924261;29;20452;-79
2023/11/09 07:22:48;;;;;;;0.83;0.60;;;8.80;99.90;;;;;;4919110;29;20245;-78
2023/11/09 07:25:15;;;;;;;1.03;0.77;;;8.80;99.90;;;;;;4899445;29;20447;-78
2023/11/09 07:27:41;;;;;;;1.20;0.70;;;8.80;99.90;;;;;;4879272;29;20495;-78
2023/11/09 07:30:07;;;;;;;1.33;1.00;;;8.80;99.90;;;;;;4894939;29;20621;-75
2023/11/09 07:32:32;;;;;;;1.23;1.13;;;8.80;99.90;;;;;;4898082;29;20422;-77
2023/11/09 07:34:58;;;;;;;0.77;0.50;;;8.90;99.90;;;;;;4917908;29;20778;-77
2023/11/09 07:37:27;;;;;;;0.90;0.60;;;;;;;;;;4895368;29;20172;-76
2023/11/09 07:39:53;;;;;;;1.37;0.80;;;9.70;99.90;;;;;;4920753;29;20210;-76
2023/11/09 07:42:19;;;;;;;0.83;0.70;;;8.90;99.90;;;;;;4914801;29;20467;-77
2023/11/09 07:44:45;;;;;;;1.10;0.70;;;8.90;99.90;;;;;;4905756;29;20539;-76
2023/11/09 07:47:11;;;;;;;1.00;0.70;;;8.90;99.90;;;;;;4916803;29;20179;-77
2023/11/09 07:49:37;;;;;;;1.13;0.70;;;8.90;99.90;;;;;;4917697;29;20462;-77
2023/11/09 07:52:05;;;;;;;0.90;0.60;;;8.90;99.90;;;;;;4933505;29;20531;-78
2023/11/09 07:54:31;;;;;;;0.90;0.67;;;8.90;99.90;;;;;;4902891;29;20187;-77
2023/11/09 07:56:58;;;;;;;1.00;0.60;;;8.90;99.90;;;;;;4918456;29;20412;-78
2023/11/09 07:59:26;;;;;;;1.00;0.70;;;8.90;99.90;;;;;;4901789;29;20428;-75
2023/11/09 08:01:52;;;;;;;1.23;0.60;;;8.90;99.90;;;;;;4888127;29;20431;-78
2023/11/09 08:04:18;;;;;;;1.87;0.60;;;8.90;99.90;;;;;;4918493;29;20446;-77
2023/11/09 08:06:45;;;;;;;0.93;0.60;;;8.90;99.90;;;;;;4897243;29;20412;-77
2023/11/09 08:09:15;;;;;;;1.40;0.70;;;8.90;99.90;;;;;;4923397;29;20466;-75
2023/11/09 08:11:43;;;;;;;0.93;0.70;;;8.90;99.90;;;;;;4898285;29;20424;-77
2023/11/09 08:14:09;;;;;;;0.90;0.70;;;8.90;99.90;;;;;;4909058;29;20415;-79
2023/11/09 08:16:40;;;;;;;1.23;1.07;;;8.70;99.90;;;;;;4923709;29;20475;-78
2023/11/09 08:19:06;;;;;;;0.80;0.70;;;9.00;99.90;;;;;;4903703;29;20430;-81
2023/11/09 08:21:33;;;;;;;1.33;0.60;;;9.00;99.90;;;;;;4922610;29;20797;-77
2023/11/09 08:23:59;;;;;;;0.90;0.50;;;9.80;99.90;;;;;;4885958;29;20443;-80
2023/11/09 08:26:29;;;;;;;0.70;0.50;;;9.20;99.90;;;;;;4910367;29;20461;-77
2023/11/09 08:28:55;;;;;;;1.00;0.50;;;9.10;99.90;;;;;;4880988;29;20750;-77
2023/11/09 08:31:21;;;;;;;0.67;0.50;;;9.20;99.90;;;;;;4907885;29;20447;-77
2023/11/09 08:33:47;;;;;;;0.80;0.60;;;9.30;99.90;;;;;;4926476;29;20419;-77
2023/11/09 08:36:14;;;;;;;2.00;0.60;;;9.30;99.90;;;;;;4917995;29;20485;-78
2023/11/09 08:38:40;;;;;;;1.53;0.70;;;9.40;99.90;;;;;;4913083;29;20422;-75
2023/11/09 08:41:06;;;;;;;0.63;0.47;;;9.40;99.90;;;;;;4902737;29;20474;-77
2023/11/09 08:43:35;;;;;;;0.70;0.50;;;9.40;99.90;;;;;;4900658;29;20442;-78
2023/11/09 08:46:03;;;;;;;0.90;0.60;;;9.40;99.90;;;;;;4917373;29;20478;-76
2023/11/09 08:48:30;;;;;;;0.93;0.60;;;9.40;99.90;;;;;;4899691;29;20459;-78
2023/11/09 08:51:00;;;;;;;1.43;0.70;;;9.40;99.90;;;;;;4901529;29;20464;-77
2023/11/09 08:53:32;;;;;;;0.80;0.60;;;9.40;99.90;;;;;;4928105;29;20443;-79
2023/11/09 08:56:00;;;;;;;1.03;0.60;;;9.40;99.90;;;;;;4920075;29;20439;-79
2023/11/09 08:58:27;;;;;;;0.90;0.60;;;9.40;99.90;;;;;;4923424;29;20415;-77
2023/11/09 09:00:54;;;;;;;1.90;0.60;;;9.30;99.90;;;;;;4911911;29;20490;-69
2023/11/09 09:03:28;;;;;;;1.20;0.90;;;9.30;99.90;;;;;;4910163;29;20462;-70
2023/11/09 09:05:55;;;;;;;3.37;1.33;;;9.20;99.90;;;;;;4919371;29;20462;-70
2023/11/09 09:08:26;;;;;;;2.50;1.10;;;9.20;99.90;;;;;;4884884;29;20700;-70
2023/11/09 09:10:56;;;;;;;1.40;1.00;;;9.20;99.90;;;;;;4903507;29;20427;-69
2023/11/09 09:13:23;;;;;;;4.93;1.10;;;9.10;99.90;;;;;;4891719;29;20540;-68
2023/11/09 09:15:49;;;;;;;2.03;0.87;;;9.20;99.90;;;;;;4905200;29;20967;-73
2023/11/09 09:18:14;;;;;;;2.73;1.00;;;9.10;99.90;;;;;;4914457;29;20432;-70
2023/11/09 09:20:40;;;;;;;1.63;0.80;;;9.20;99.90;;;;;;4891925;29;20280;-70
2023/11/09 09:23:07;;;;;;;2.13;0.90;;;9.20;99.90;;;;;;4909010;29;20198;-69
2023/11/09 09:25:33;;;;;;;1.40;1.00;;;9.20;99.90;;;;;;4922345;29;20226;-71
2023/11/09 09:28:01;;;;;;;1.50;0.97;;;9.00;99.90;;;;;;4919468;29;20439;-69
2023/11/09 09:30:26;;;;;;;1.50;1.03;;;9.30;99.90;;;;;;4908814;29;20238;-69
2023/11/09 09:32:53;;;;;;;1.70;0.93;;;9.30;99.90;;;;;;4898349;29;20475;-71
2023/11/09 09:35:26;;;;;;;2.13;1.17;;;9.20;99.90;;;;;;4916382;29;20217;-73
2023/11/09 09:37:52;;;;;;;2.53;1.33;;;9.20;99.90;;;;;;4915900;29;20447;-71
2023/11/09 09:40:23;;;;;;;2.63;1.30;;;9.20;99.90;;;;;;4915983;29;20731;-71
2023/11/09 09:42:50;;;;;;;2.33;1.30;;;9.20;99.90;;;;;;4920336;29;20210;-71
2023/11/09 09:45:18;;;;;;;2.93;1.83;;;9.30;99.90;;;;;;4901823;29;20455;-68
2023/11/09 09:47:50;;;;;;;2.20;1.70;;;9.40;99.90;;;;;;4919939;29;20458;-69
2023/11/09 09:50:23;;;;;;;1.73;1.13;;;9.40;99.90;;;;;;4920495;29;20458;-73
2023/11/09 09:52:56;;;;;;;2.67;1.40;;;9.50;99.90;;;;;;4923348;29;20427;-72
2023/11/09 09:55:24;;;;;;;2.23;1.23;;;9.50;99.90;;;;;;4927251;29;20520;-69
2023/11/09 09:57:53;;;;;;;2.70;1.73;;;9.50;99.90;;;;;;4899811;29;20466;-71
2023/11/09 10:00:23;;;;;;;3.87;1.50;;;9.60;99.90;;;;;;4888766;29;20431;-70
2023/11/09 10:03:02;;;;;;;3.13;2.23;;;9.50;99.90;;;;;;4923667;29;20890;-74
2023/11/09 10:05:33;;;;;;;3.60;1.70;;;9.70;99.90;;;;;;4898401;29;20455;-76
2023/11/09 10:08:13;;;;;;;2.87;2.47;;;9.80;99.90;;;;;;4899539;29;20446;-75
2023/11/09 10:10:44;;;;;;;2.93;1.60;;;10.00;99.90;;;;;;4930008;29;20490;-76
2023/11/09 10:13:13;;;;;;;4.10;2.50;;;10.00;99.90;;;;;;4914787;29;20428;-77
2023/11/09 10:15:40;;;;;;;3.63;2.13;;;10.00;99.90;;;;;;4917940;29;20483;-74
2023/11/09 10:18:06;;;;;;;3.00;1.80;;;10.10;99.90;;;;;;4916322;29;20437;-76
2023/11/09 10:20:33;;;;;;;6.80;3.33;;;10.10;99.90;;;;;;4927534;29;20463;-79
2023/11/09 10:23:05;;;;;;;5.90;3.60;;;10.10;99.90;;;;;;4917512;29;20430;-75
2023/11/09 10:25:32;;;;;;;6.67;2.97;;;10.00;99.90;;;;;;4890733;29;20516;-76
2023/11/09 10:28:02;;;;;;;12.33;3.37;;;10.00;99.90;;;;;;4907498;29;20526;-73
2023/11/09 10:30:35;;;;;;;4.23;2.83;;;10.10;99.90;;;;;;4904053;29;20474;-75
2023/11/09 10:33:02;;;;;;;5.17;2.67;;;10.10;99.90;;;;;;4900133;29;20438;-76
2023/11/09 10:35:28;;;;;;;3.10;2.03;;;10.10;99.90;;;;;;4913021;29;20458;-76
2023/11/09 10:37:56;;;;;;;3.80;2.20;;;10.00;99.90;;;;;;4924532;29;20417;-75
2023/11/09 10:40:23;;;;;;;6.17;2.60;;;9.90;99.90;;;;;;4920159;29;20209;-77
2023/11/09 10:42:51;;;;;;;2.73;1.93;;;9.80;99.90;;;;;;4914315;29;20447;-76
2023/11/09 10:45:22;;;;;;;4.10;2.03;;;9.80;99.90;;;;;;4914554;29;20440;-75
2023/11/09 10:47:52;;;;;;;3.10;1.70;;;9.80;99.90;;;;;;4917690;29;20474;-80
2023/11/09 10:50:21;;;;;;;5.70;2.60;;;9.90;99.90;;;;;;4899407;29;20803;-78
2023/11/09 10:52:49;;;;;;;5.07;3.03;;;10.00;99.90;;;;;;4900291;29;20409;-79
2023/11/09 10:55:16;;;;;;;4.33;2.57;;;10.20;99.90;;;;;;4925489;29;20435;-76
2023/11/09 10:57:43;;;;;;;5.50;2.40;;;10.20;99.90;;;;;;4928347;29;20449;-76
2023/11/09 11:00:11;;;;;;;8.40;3.20;;;10.30;99.90;;;;;;4915299;29;20539;-77
2023/11/09 11:02:52;;;;;;;6.57;3.33;;;10.30;99.90;;;;;;4908558;29;20433;-78
2023/11/09 11:05:25;;;;;;;4.77;2.10;;;10.30;99.90;;;;;;4907418;29;20462;-76
2023/11/09 11:08:06;;;;;;;5.03;2.33;;;10.20;99.90;;;;;;4915583;29;20432;-74
2023/11/09 11:10:32;;;;;;;3.67;2.30;;;10.10;99.90;;;;;;4908850;29;20489;-73
2023/11/09 11:13:09;;;;;;;2.80;2.30;;;10.10;99.90;;;;;;4904174;29;20480;-79
2023/11/09 11:16:16;;;;;;;8.83;3.13;;;10.10;99.90;;;;;;4914638;29;20325;-77
2023/11/09 11:19:19;;;;;;;5.23;3.17;;;10.00;99.90;;;;;;4925294;29;20429;-78
2023/11/09 11:22:27;;;;;;;9.83;2.80;;;10.10;99.90;;;;;;4926021;29;20423;-72
2023/11/09 11:25:06;;;;;;;4.40;2.47;;;10.00;99.90;;;;;;4922886;29;20461;-70
2023/11/09 11:27:37;;;;;;;6.20;2.40;;;10.00;99.90;;;;;;4908433;29;20447;-72
2023/11/09 11:30:39;;;;;;;7.03;3.20;;;10.00;99.90;;;;;;4919391;29;20479;-71
2023/11/09 11:33:20;;;;;;;15.70;4.37;;;10.00;99.90;;;;;;4883654;29;20436;-72
2023/11/09 11:35:56;;;;;;;8.10;3.80;;;9.90;99.90;;;;;;4903615;29;20472;-77
2023/11/09 11:38:32;;;;;;;7.20;3.50;;;9.80;99.90;;;;;;4911984;29;20430;-77
2023/11/09 11:41:12;;;;;;;5.27;3.13;;;9.70;99.90;;;;;;4907461;29;20463;-76
2023/11/09 11:43:43;;;;;;;3.37;2.20;;;9.60;99.90;;;;;;4916986;29;20471;-78
2023/11/09 11:46:12;;;;;;;7.90;3.30;;;9.50;99.90;;;;;;4921199;29;20435;-78
2023/11/09 11:48:42;;;;;;;5.70;2.70;;;9.60;99.90;;;;;;4915938;29;20467;-76
2023/11/09 11:51:09;;;;;;;8.70;3.17;;;9.50;99.90;;;;;;4914022;29;20435;-77
2023/11/09 11:53:36;;;;;;;7.30;3.10;;;9.60;99.90;;;;;;4910199;29;20714;-77
2023/11/09 11:56:02;;;;;;;13.90;3.57;;;9.60;99.90;;;;;;4907998;29;20467;-78
2023/11/09 11:58:52;;;;;;;11.70;2.83;;;9.60;99.90;;;;;;4910241;29;20430;-76
2023/11/09 12:01:28;;;;;;;6.60;3.00;;;9.60;99.90;;;;;;4900610;29;20199;-76
2023/11/09 12:03:57;;;;;;;8.77;3.80;;;9.60;99.90;;;;;;4919869;29;20433;-76
2023/11/09 12:06:25;;;;;;;11.57;3.57;;;9.70;99.90;;;;;;4901230;29;20444;-76
2023/11/09 12:08:58;;;;;;;7.50;3.70;;;9.70;99.90;;;;;;4919621;29;20897;-75
2023/11/09 12:11:34;;;;;;;5.70;3.00;;;9.90;99.90;;;;;;4923340;29;20454;-77
2023/11/09 12:14:01;;;;;;;5.07;3.27;;;10.10;99.90;;;;;;4903968;29;20434;-75
2023/11/09 12:16:29;;;;;;;6.10;3.07;;;10.30;99.90;;;;;;4920245;29;20525;-74
2023/11/09 12:19:00;;;;;;;8.47;2.97;;;10.40;99.90;;;;;;4925173;29;20446;-74
2023/11/09 12:21:28;;;;;;;6.00;3.20;;;10.60;99.90;;;;;;4901585;29;20841;-77
2023/11/09 12:23:56;;;;;;;5.73;2.47;;;10.70;99.90;;;;;;4912116;29;20854;-79
2023/11/09 12:26:24;;;;;;;3.80;2.90;;;10.90;99.90;;;;;;4932899;29;20434;-81
2023/11/09 12:28:53;;;;;;;6.50;3.53;;;11.10;99.90;;;;;;4907865;29;20452;-78
2023/11/09 12:31:22;;;;;;;5.43;3.00;;;11.30;99.90;;;;;;4907635;29;20812;-78
2023/11/09 12:34:13;;;;;;;6.57;3.10;;;11.40;99.90;;;;;;4897117;29;20430;-79
2023/11/09 12:36:42;;;;;;;5.73;2.50;;;11.50;99.90;;;;;;4904509;29;20434;-78
2023/11/09 12:39:29;;;;;;;3.73;1.97;;;11.60;99.90;;;;;;4916965;29;20415;-78
2023/11/09 12:42:04;;;;;;;3.20;2.13;;;11.80;99.90;;;;;;4916650;29;20427;-77
2023/11/09 12:44:34;;;;;;;4.77;3.07;;;11.80;99.90;;;;;;4883823;29;20479;-78
2023/11/09 12:47:07;;;;;;;6.50;3.00;;;11.80;99.90;;;;;;4906689;29;20442;-74
2023/11/09 12:49:33;;;;;;;2.90;2.10;;;11.90;99.90;;;;;;4912444;29;20447;-77
2023/11/09 12:52:00;;;;;;;5.10;2.27;;;12.00;99.90;;;;;;4906828;29;20453;-76
2023/11/09 12:54:26;;;;;;;4.70;3.10;;;12.10;99.90;;;;;;4899149;29;20443;-78
2023/11/09 12:56:56;;;;;;;6.93;2.40;;;12.10;99.90;;;;;;4926655;29;20430;-79
2023/11/09 12:59:28;;;;;;;3.77;2.63;;;12.20;99.90;;;;;;4889761;29;20194;-75
2023/11/09 13:02:03;;;;;;;3.97;2.50;;;12.20;99.90;;;;;;4908077;29;20434;-78
2023/11/09 13:04:37;;;;;;;5.60;2.20;;;12.20;99.90;;;;;;4907508;29;20519;-78
2023/11/09 13:07:04;;;;;;;3.40;2.33;;;12.30;99.90;;;;;;4928998;29;20471;-78
2023/11/09 13:12:26;;;;;;;4.20;2.27;;;12.30;99.90;;;;;;4905359;29;20430;-76
2023/11/09 13:15:10;;;;;;;3.90;2.10;;;12.20;99.90;;;;;;4896038;29;20218;-77